sensor_id;sensor_type;location;lat;lon;timestamp;temperature;humidity
78479;SHT31;67769;51.972;5.668;2023-11-21T00:01:53;9.9;79.8
78479;SHT31;67769;51.972;5.668;2023-11-21T00:04:23;9.8;80.2
78479;SHT31;67769;51.972;5.668;2023-11-21T00:06:51;9.8;80.1
78479;SHT31;67769;51.972;5.668;2023-11-21T00:09:20;9.7;80.3
78479;SHT31;67769;51.972;5.668;2023-11-21T00:11:50;9.7;80.4
78479;SHT31;67769;51.972;5.668;2023-11-21T00:14:18;9.6;80.4
78479;SHT31;67769;51.972;5.668;2023-11-21T00:16:47;9.5;80.4
78479;SHT31;67769;51.972;5.668;2023-11-21T00:19:16;9.5;80.7
78479;SHT31;67769;51.972;5.668;2023-11-21T00:21:46;9.4;80.7
78479;SHT31;67769;51.972;5.668;2023-11-21T00:24:14;9.4;80.4
78479;SHT31;67769;51.972;5.668;2023-11-21T00:26:44;9.3;80.8
78479;SHT31;67769;51.972;5.668;2023-11-21T00:29:14;9.3;81.1
78479;SHT31;67769;51.972;5.668;2023-11-21T00:31:44;9.2;81.1
78479;SHT31;67769;51.972;5.668;2023-11-21T00:34:13;9.2;81.3
78479;SHT31;67769;51.972;5.668;2023-11-21T00:36:41;9.1;81.5
78479;SHT31;67769;51.972;5.668;2023-11-21T00:39:10;9.1;81.7
78479;SHT31;67769;51.972;5.668;2023-11-21T00:41:38;9.0;81.7
78479;SHT31;67769;51.972;5.668;2023-11-21T00:44:07;9.0;81.5
78479;SHT31;67769;51.972;5.668;2023-11-21T00:46:35;9.0;81.3
78479;SHT31;67769;51.972;5.668;2023-11-21T00:49:03;8.9;81.5
78479;SHT31;67769;51.972;5.668;2023-11-21T00:51:32;8.9;81.5
78479;SHT31;67769;51.972;5.668;2023-11-21T00:54:01;8.9;81.5
78479;SHT31;67769;51.972;5.668;2023-11-21T00:56:29;8.8;81.5
78479;SHT31;67769;51.972;5.668;2023-11-21T00:58:58;8.8;81.5
78479;SHT31;67769;51.972;5.668;2023-11-21T01:01:26;8.7;81.7
78479;SHT31;67769;51.972;5.668;2023-11-21T01:03:55;8.7;81.9
78479;SHT31;67769;51.972;5.668;2023-11-21T01:06:23;8.7;82.0
78479;SHT31;67769;51.972;5.668;2023-11-21T01:08:51;8.6;82.1
78479;SHT31;67769;51.972;5.668;2023-11-21T01:11:22;8.6;82.7
78479;SHT31;67769;51.972;5.668;2023-11-21T01:13:50;8.6;82.5
78479;SHT31;67769;51.972;5.668;2023-11-21T01:16:19;8.6;82.6
78479;SHT31;67769;51.972;5.668;2023-11-21T01:18:48;8.5;82.8
78479;SHT31;67769;51.972;5.668;2023-11-21T01:21:17;8.5;83.0
78479;SHT31;67769;51.972;5.668;2023-11-21T01:23:45;8.5;83.2
78479;SHT31;67769;51.972;5.668;2023-11-21T01:26:14;8.5;83.5
78479;SHT31;67769;51.972;5.668;2023-11-21T01:28:42;8.5;83.8
78479;SHT31;67769;51.972;5.668;2023-11-21T01:31:10;8.5;83.9
78479;SHT31;67769;51.972;5.668;2023-11-21T01:33:39;8.5;83.7
78479;SHT31;67769;51.972;5.668;2023-11-21T01:36:08;8.5;83.6
78479;SHT31;67769;51.972;5.668;2023-11-21T01:38:36;8.6;83.8
78479;SHT31;67769;51.972;5.668;2023-11-21T01:41:05;8.6;84.1
78479;SHT31;67769;51.972;5.668;2023-11-21T01:43:34;8.6;84.2
78479;SHT31;67769;51.972;5.668;2023-11-21T01:46:05;8.6;84.2
78479;SHT31;67769;51.972;5.668;2023-11-21T01:48:34;8.6;84.3
78479;SHT31;67769;51.972;5.668;2023-11-21T01:51:04;8.6;84.4
78479;SHT31;67769;51.972;5.668;2023-11-21T01:53:34;8.6;84.4
78479;SHT31;67769;51.972;5.668;2023-11-21T01:56:04;8.6;84.4
78479;SHT31;67769;51.972;5.668;2023-11-21T01:58:34;8.6;84.5
78479;SHT31;67769;51.972;5.668;2023-11-21T02:01:02;8.6;85.3
78479;SHT31;67769;51.972;5.668;2023-11-21T02:03:31;8.6;85.6
78479;SHT31;67769;51.972;5.668;2023-11-21T02:06:01;8.6;86.1
78479;SHT31;67769;51.972;5.668;2023-11-21T02:08:29;8.7;86.2
78479;SHT31;67769;51.972;5.668;2023-11-21T02:10:58;8.7;86.5
78479;SHT31;67769;51.972;5.668;2023-11-21T02:13:26;8.8;86.4
78479;SHT31;67769;51.972;5.668;2023-11-21T02:15:55;8.8;86.4
78479;SHT31;67769;51.972;5.668;2023-11-21T02:18:24;8.8;86.0
78479;SHT31;67769;51.972;5.668;2023-11-21T02:20:55;8.9;85.9
78479;SHT31;67769;51.972;5.668;2023-11-21T02:23:24;8.9;85.5
78479;SHT31;67769;51.972;5.668;2023-11-21T02:25:57;8.9;85.3
78479;SHT31;67769;51.972;5.668;2023-11-21T02:28:25;9.0;85.3
78479;SHT31;67769;51.972;5.668;2023-11-21T02:30:54;9.0;85.1
78479;SHT31;67769;51.972;5.668;2023-11-21T02:33:25;9.1;85.0
78479;SHT31;67769;51.972;5.668;2023-11-21T02:35:53;9.1;84.8
78479;SHT31;67769;51.972;5.668;2023-11-21T02:38:22;9.1;84.8
78479;SHT31;67769;51.972;5.668;2023-11-21T02:40:51;9.2;84.5
78479;SHT31;67769;51.972;5.668;2023-11-21T02:43:19;9.2;84.4
78479;SHT31;67769;51.972;5.668;2023-11-21T02:45:48;9.3;84.1
78479;SHT31;67769;51.972;5.668;2023-11-21T02:48:16;9.3;84.0
78479;SHT31;67769;51.972;5.668;2023-11-21T02:50:45;9.3;84.0
78479;SHT31;67769;51.972;5.668;2023-11-21T02:53:13;9.4;84.0
78479;SHT31;67769;51.972;5.668;2023-11-21T02:55:42;9.4;83.8
78479;SHT31;67769;51.972;5.668;2023-11-21T02:58:13;9.4;83.8
78479;SHT31;67769;51.972;5.668;2023-11-21T03:00:42;9.5;83.7
78479;SHT31;67769;51.972;5.668;2023-11-21T03:03:12;9.5;83.6
78479;SHT31;67769;51.972;5.668;2023-11-21T03:05:41;9.6;83.6
78479;SHT31;67769;51.972;5.668;2023-11-21T03:08:09;9.6;83.5
78479;SHT31;67769;51.972;5.668;2023-11-21T03:10:37;9.6;83.6
78479;SHT31;67769;51.972;5.668;2023-11-21T03:13:06;9.6;83.6
78479;SHT31;67769;51.972;5.668;2023-11-21T03:15:34;9.6;83.6
78479;SHT31;67769;51.972;5.668;2023-11-21T03:18:03;9.5;83.6
78479;SHT31;67769;51.972;5.668;2023-11-21T03:20:33;9.5;83.6
78479;SHT31;67769;51.972;5.668;2023-11-21T03:23:02;9.5;83.6
78479;SHT31;67769;51.972;5.668;2023-11-21T03:25:31;9.5;83.8
78479;SHT31;67769;51.972;5.668;2023-11-21T03:27:59;9.5;83.8
78479;SHT31;67769;51.972;5.668;2023-11-21T03:30:28;9.6;83.9
78479;SHT31;67769;51.972;5.668;2023-11-21T03:32:56;9.6;84.0
78479;SHT31;67769;51.972;5.668;2023-11-21T03:35:25;9.6;84.2
78479;SHT31;67769;51.972;5.668;2023-11-21T03:37:54;9.6;84.2
78479;SHT31;67769;51.972;5.668;2023-11-21T03:40:22;9.7;84.2
78479;SHT31;67769;51.972;5.668;2023-11-21T03:42:51;9.7;84.3
78479;SHT31;67769;51.972;5.668;2023-11-21T03:45:19;9.7;84.2
78479;SHT31;67769;51.972;5.668;2023-11-21T03:47:48;9.7;84.3
78479;SHT31;67769;51.972;5.668;2023-11-21T03:50:16;9.8;84.2
78479;SHT31;67769;51.972;5.668;2023-11-21T03:52:44;9.8;84.1
78479;SHT31;67769;51.972;5.668;2023-11-21T03:55:13;9.8;84.0
78479;SHT31;67769;51.972;5.668;2023-11-21T03:57:43;9.9;84.1
78479;SHT31;67769;51.972;5.668;2023-11-21T04:00:12;9.9;84.1
78479;SHT31;67769;51.972;5.668;2023-11-21T04:02:41;9.9;84.2
78479;SHT31;67769;51.972;5.668;2023-11-21T04:05:11;10.0;84.0
78479;SHT31;67769;51.972;5.668;2023-11-21T04:07:40;10.0;83.8
78479;SHT31;67769;51.972;5.668;2023-11-21T04:10:09;10.1;83.5
78479;SHT31;67769;51.972;5.668;2023-11-21T04:12:39;10.1;83.3
78479;SHT31;67769;51.972;5.668;2023-11-21T04:15:08;10.1;83.3
78479;SHT31;67769;51.972;5.668;2023-11-21T04:17:37;10.2;83.3
78479;SHT31;67769;51.972;5.668;2023-11-21T04:20:08;10.2;83.3
78479;SHT31;67769;51.972;5.668;2023-11-21T04:22:38;10.2;83.1
78479;SHT31;67769;51.972;5.668;2023-11-21T04:25:11;10.3;83.0
78479;SHT31;67769;51.972;5.668;2023-11-21T04:27:42;10.3;82.8
78479;SHT31;67769;51.972;5.668;2023-11-21T04:30:12;10.3;82.6
78479;SHT31;67769;51.972;5.668;2023-11-21T04:32:41;10.3;82.7
78479;SHT31;67769;51.972;5.668;2023-11-21T04:35:10;10.3;82.8
78479;SHT31;67769;51.972;5.668;2023-11-21T04:37:39;10.3;83.0
78479;SHT31;67769;51.972;5.668;2023-11-21T04:40:09;10.3;83.1
78479;SHT31;67769;51.972;5.668;2023-11-21T04:42:37;10.3;83.2
78479;SHT31;67769;51.972;5.668;2023-11-21T04:45:07;10.4;83.2
78479;SHT31;67769;51.972;5.668;2023-11-21T04:47:38;10.4;83.4
78479;SHT31;67769;51.972;5.668;2023-11-21T04:50:07;10.4;83.5
78479;SHT31;67769;51.972;5.668;2023-11-21T04:52:35;10.4;83.2
78479;SHT31;67769;51.972;5.668;2023-11-21T04:55:04;10.3;83.1
78479;SHT31;67769;51.972;5.668;2023-11-21T04:57:36;10.3;83.2
78479;SHT31;67769;51.972;5.668;2023-11-21T05:00:05;10.4;83.5
78479;SHT31;67769;51.972;5.668;2023-11-21T05:02:36;10.4;83.5
78479;SHT31;67769;51.972;5.668;2023-11-21T05:05:05;10.4;83.6
78479;SHT31;67769;51.972;5.668;2023-11-21T05:07:36;10.4;83.6
78479;SHT31;67769;51.972;5.668;2023-11-21T05:10:06;10.4;83.4
78479;SHT31;67769;51.972;5.668;2023-11-21T05:12:39;10.4;83.4
78479;SHT31;67769;51.972;5.668;2023-11-21T05:15:08;10.5;83.5
78479;SHT31;67769;51.972;5.668;2023-11-21T05:17:39;10.5;83.5
78479;SHT31;67769;51.972;5.668;2023-11-21T05:20:09;10.5;83.5
78479;SHT31;67769;51.972;5.668;2023-11-21T05:22:39;10.5;83.2
78479;SHT31;67769;51.972;5.668;2023-11-21T05:25:09;10.5;83.2
78479;SHT31;67769;51.972;5.668;2023-11-21T05:27:39;10.6;83.3
78479;SHT31;67769;51.972;5.668;2023-11-21T05:30:08;10.6;83.3
78479;SHT31;67769;51.972;5.668;2023-11-21T05:32:39;10.6;83.3
78479;SHT31;67769;51.972;5.668;2023-11-21T05:35:09;10.6;83.4
78479;SHT31;67769;51.972;5.668;2023-11-21T05:37:41;10.6;83.4
78479;SHT31;67769;51.972;5.668;2023-11-21T05:40:10;10.7;83.4
78479;SHT31;67769;51.972;5.668;2023-11-21T05:42:43;10.7;83.3
78479;SHT31;67769;51.972;5.668;2023-11-21T05:45:12;10.7;83.1
78479;SHT31;67769;51.972;5.668;2023-11-21T05:47:43;10.8;83.0
78479;SHT31;67769;51.972;5.668;2023-11-21T05:50:14;10.8;82.9
78479;SHT31;67769;51.972;5.668;2023-11-21T05:52:44;10.8;82.8
78479;SHT31;67769;51.972;5.668;2023-11-21T05:55:13;10.8;83.1
78479;SHT31;67769;51.972;5.668;2023-11-21T05:57:43;10.8;83.0
78479;SHT31;67769;51.972;5.668;2023-11-21T06:00:14;10.8;83.1
78479;SHT31;67769;51.972;5.668;2023-11-21T06:02:48;10.8;83.1
78479;SHT31;67769;51.972;5.668;2023-11-21T06:05:21;10.8;82.9
78479;SHT31;67769;51.972;5.668;2023-11-21T06:07:51;10.8;82.8
78479;SHT31;67769;51.972;5.668;2023-11-21T06:10:22;10.8;82.6
78479;SHT31;67769;51.972;5.668;2023-11-21T06:12:51;10.8;82.7
78479;SHT31;67769;51.972;5.668;2023-11-21T06:15:19;10.9;82.9
78479;SHT31;67769;51.972;5.668;2023-11-21T06:17:50;10.9;82.9
78479;SHT31;67769;51.972;5.668;2023-11-21T06:20:21;10.9;82.8
78479;SHT31;67769;51.972;5.668;2023-11-21T06:22:51;10.9;82.7
78479;SHT31;67769;51.972;5.668;2023-11-21T06:25:20;10.9;82.8
78479;SHT31;67769;51.972;5.668;2023-11-21T06:27:49;10.9;82.6
78479;SHT31;67769;51.972;5.668;2023-11-21T06:30:20;10.9;82.7
78479;SHT31;67769;51.972;5.668;2023-11-21T06:32:51;10.9;82.9
78479;SHT31;67769;51.972;5.668;2023-11-21T06:35:20;10.9;83.0
78479;SHT31;67769;51.972;5.668;2023-11-21T06:37:48;10.8;83.1
78479;SHT31;67769;51.972;5.668;2023-11-21T06:40:19;10.8;83.3
78479;SHT31;67769;51.972;5.668;2023-11-21T06:42:48;10.8;83.4
78479;SHT31;67769;51.972;5.668;2023-11-21T06:45:20;10.8;83.7
78479;SHT31;67769;51.972;5.668;2023-11-21T06:47:49;10.8;83.8
78479;SHT31;67769;51.972;5.668;2023-11-21T06:50:18;10.8;83.8
78479;SHT31;67769;51.972;5.668;2023-11-21T06:52:47;10.8;83.9
78479;SHT31;67769;51.972;5.668;2023-11-21T06:55:16;10.9;84.0
78479;SHT31;67769;51.972;5.668;2023-11-21T06:57:44;10.9;83.9
78479;SHT31;67769;51.972;5.668;2023-11-21T07:00:17;10.9;83.9
78479;SHT31;67769;51.972;5.668;2023-11-21T07:02:46;10.9;83.7
78479;SHT31;67769;51.972;5.668;2023-11-21T07:05:15;10.9;83.6
78479;SHT31;67769;51.972;5.668;2023-11-21T07:07:47;11.0;83.4
78479;SHT31;67769;51.972;5.668;2023-11-21T07:10:16;11.0;83.7
78479;SHT31;67769;51.972;5.668;2023-11-21T07:12:45;11.0;83.4
78479;SHT31;67769;51.972;5.668;2023-11-21T07:15:14;11.0;83.5
78479;SHT31;67769;51.972;5.668;2023-11-21T07:17:43;11.0;83.5
78479;SHT31;67769;51.972;5.668;2023-11-21T07:20:13;11.0;83.6
78479;SHT31;67769;51.972;5.668;2023-11-21T07:22:43;11.1;83.7
78479;SHT31;67769;51.972;5.668;2023-11-21T07:25:12;11.1;83.6
78479;SHT31;67769;51.972;5.668;2023-11-21T07:27:40;11.1;83.3
78479;SHT31;67769;51.972;5.668;2023-11-21T07:30:09;11.1;83.1
78479;SHT31;67769;51.972;5.668;2023-11-21T07:32:39;11.1;83.2
78479;SHT31;67769;51.972;5.668;2023-11-21T07:35:08;11.1;83.2
78479;SHT31;67769;51.972;5.668;2023-11-21T07:37:38;11.2;83.4
78479;SHT31;67769;51.972;5.668;2023-11-21T07:40:07;11.2;83.6
78479;SHT31;67769;51.972;5.668;2023-11-21T07:42:37;11.2;83.4
78479;SHT31;67769;51.972;5.668;2023-11-21T07:45:07;11.3;83.5
78479;SHT31;67769;51.972;5.668;2023-11-21T07:47:35;11.3;83.3
78479;SHT31;67769;51.972;5.668;2023-11-21T07:50:06;11.4;82.9
78479;SHT31;67769;51.972;5.668;2023-11-21T07:52:35;11.4;83.0
78479;SHT31;67769;51.972;5.668;2023-11-21T07:55:04;11.4;83.1
78479;SHT31;67769;51.972;5.668;2023-11-21T07:57:34;11.5;83.0
78479;SHT31;67769;51.972;5.668;2023-11-21T08:00:02;11.5;82.8
78479;SHT31;67769;51.972;5.668;2023-11-21T08:02:33;11.5;82.8
78479;SHT31;67769;51.972;5.668;2023-11-21T08:05:01;11.5;82.8
78479;SHT31;67769;51.972;5.668;2023-11-21T08:07:30;11.6;82.7
78479;SHT31;67769;51.972;5.668;2023-11-21T08:09:59;11.6;82.7
78479;SHT31;67769;51.972;5.668;2023-11-21T08:12:27;11.6;82.7
78479;SHT31;67769;51.972;5.668;2023-11-21T08:14:55;11.6;82.4
78479;SHT31;67769;51.972;5.668;2023-11-21T08:17:24;11.6;82.3
78479;SHT31;67769;51.972;5.668;2023-11-21T08:19:52;11.7;82.5
78479;SHT31;67769;51.972;5.668;2023-11-21T08:22:21;11.7;82.0
78479;SHT31;67769;51.972;5.668;2023-11-21T08:24:49;11.7;82.1
78479;SHT31;67769;51.972;5.668;2023-11-21T08:27:20;11.6;82.1
78479;SHT31;67769;51.972;5.668;2023-11-21T08:29:48;11.6;82.4
78479;SHT31;67769;51.972;5.668;2023-11-21T08:32:18;11.5;82.8
78479;SHT31;67769;51.972;5.668;2023-11-21T08:34:47;11.5;83.2
78479;SHT31;67769;51.972;5.668;2023-11-21T08:37:17;11.5;83.5
78479;SHT31;67769;51.972;5.668;2023-11-21T08:39:47;11.5;83.5
78479;SHT31;67769;51.972;5.668;2023-11-21T08:42:16;11.4;83.7
78479;SHT31;67769;51.972;5.668;2023-11-21T08:44:46;11.4;83.9
78479;SHT31;67769;51.972;5.668;2023-11-21T08:47:15;11.4;84.2
78479;SHT31;67769;51.972;5.668;2023-11-21T08:49:43;11.5;84.4
78479;SHT31;67769;51.972;5.668;2023-11-21T08:52:14;11.5;84.5
78479;SHT31;67769;51.972;5.668;2023-11-21T08:54:43;11.6;84.3
78479;SHT31;67769;51.972;5.668;2023-11-21T08:57:12;11.7;84.0
78479;SHT31;67769;51.972;5.668;2023-11-21T08:59:40;11.8;83.8
78479;SHT31;67769;51.972;5.668;2023-11-21T09:02:09;11.8;83.6
78479;SHT31;67769;51.972;5.668;2023-11-21T09:04:37;11.9;83.2
78479;SHT31;67769;51.972;5.668;2023-11-21T09:07:06;11.9;82.6
78479;SHT31;67769;51.972;5.668;2023-11-21T09:09:34;12.0;82.6
78479;SHT31;67769;51.972;5.668;2023-11-21T09:12:05;12.0;82.5
78479;SHT31;67769;51.972;5.668;2023-11-21T09:14:36;12.1;82.4
78479;SHT31;67769;51.972;5.668;2023-11-21T09:17:05;12.1;82.2
78479;SHT31;67769;51.972;5.668;2023-11-21T09:19:37;12.1;82.1
78479;SHT31;67769;51.972;5.668;2023-11-21T09:22:06;12.2;82.3
78479;SHT31;67769;51.972;5.668;2023-11-21T09:24:35;12.2;81.9
78479;SHT31;67769;51.972;5.668;2023-11-21T09:27:04;12.3;82.0
78479;SHT31;67769;51.972;5.668;2023-11-21T09:29:32;12.3;81.8
78479;SHT31;67769;51.972;5.668;2023-11-21T09:32:03;12.3;81.9
78479;SHT31;67769;51.972;5.668;2023-11-21T09:34:32;12.4;82.0
78479;SHT31;67769;51.972;5.668;2023-11-21T09:37:05;12.4;82.0
78479;SHT31;67769;51.972;5.668;2023-11-21T09:39:34;12.5;82.0
78479;SHT31;67769;51.972;5.668;2023-11-21T09:42:10;12.5;81.9
78479;SHT31;67769;51.972;5.668;2023-11-21T09:44:48;12.5;81.3
78479;SHT31;67769;51.972;5.668;2023-11-21T09:47:17;12.5;81.5
78479;SHT31;67769;51.972;5.668;2023-11-21T09:49:47;12.5;81.7
78479;SHT31;67769;51.972;5.668;2023-11-21T09:52:25;12.5;82.0
78479;SHT31;67769;51.972;5.668;2023-11-21T09:54:57;12.5;82.3
78479;SHT31;67769;51.972;5.668;2023-11-21T09:57:27;12.5;82.7
78479;SHT31;67769;51.972;5.668;2023-11-21T09:59:57;12.5;82.7
78479;SHT31;67769;51.972;5.668;2023-11-21T10:02:28;12.5;82.9
78479;SHT31;67769;51.972;5.668;2023-11-21T10:04:57;12.5;82.8
78479;SHT31;67769;51.972;5.668;2023-11-21T10:07:26;12.5;83.5
78479;SHT31;67769;51.972;5.668;2023-11-21T10:10:01;12.5;83.4
78479;SHT31;67769;51.972;5.668;2023-11-21T10:12:31;12.5;83.4
78479;SHT31;67769;51.972;5.668;2023-11-21T10:15:03;12.5;82.9
78479;SHT31;67769;51.972;5.668;2023-11-21T10:17:36;12.6;82.7
78479;SHT31;67769;51.972;5.668;2023-11-21T10:20:11;12.6;82.2
78479;SHT31;67769;51.972;5.668;2023-11-21T10:22:41;12.6;82.2
78479;SHT31;67769;51.972;5.668;2023-11-21T10:25:11;12.6;82.2
78479;SHT31;67769;51.972;5.668;2023-11-21T10:27:41;12.6;82.2
78479;SHT31;67769;51.972;5.668;2023-11-21T10:30:11;12.6;81.7
78479;SHT31;67769;51.972;5.668;2023-11-21T10:32:44;12.6;81.9
78479;SHT31;67769;51.972;5.668;2023-11-21T10:35:13;12.6;82.1
78479;SHT31;67769;51.972;5.668;2023-11-21T10:37:41;12.7;81.8
78479;SHT31;67769;51.972;5.668;2023-11-21T10:40:11;12.7;81.3
78479;SHT31;67769;51.972;5.668;2023-11-21T10:42:40;12.7;81.5
78479;SHT31;67769;51.972;5.668;2023-11-21T10:45:09;12.7;81.5
78479;SHT31;67769;51.972;5.668;2023-11-21T10:47:41;12.7;80.9
78479;SHT31;67769;51.972;5.668;2023-11-21T10:50:10;12.7;81.2
78479;SHT31;67769;51.972;5.668;2023-11-21T10:52:39;12.7;81.3
78479;SHT31;67769;51.972;5.668;2023-11-21T10:55:18;12.7;81.3
78479;SHT31;67769;51.972;5.668;2023-11-21T10:57:49;12.7;81.3
78479;SHT31;67769;51.972;5.668;2023-11-21T11:00:19;12.7;81.2
78479;SHT31;67769;51.972;5.668;2023-11-21T11:02:52;12.7;81.3
78479;SHT31;67769;51.972;5.668;2023-11-21T11:05:23;12.7;81.7
78479;SHT31;67769;51.972;5.668;2023-11-21T11:07:58;12.7;81.4
78479;SHT31;67769;51.972;5.668;2023-11-21T11:10:28;12.7;81.2
78479;SHT31;67769;51.972;5.668;2023-11-21T11:12:58;12.7;81.4
78479;SHT31;67769;51.972;5.668;2023-11-21T11:15:30;12.7;81.2
78479;SHT31;67769;51.972;5.668;2023-11-21T11:18:00;12.7;80.9
78479;SHT31;67769;51.972;5.668;2023-11-21T11:20:35;12.7;80.5
78479;SHT31;67769;51.972;5.668;2023-11-21T11:23:26;12.7;80.2
78479;SHT31;67769;51.972;5.668;2023-11-21T11:26:10;12.6;80.1
78479;SHT31;67769;51.972;5.668;2023-11-21T11:28:47;12.6;80.2
78479;SHT31;67769;51.972;5.668;2023-11-21T11:31:31;12.5;80.7
78479;SHT31;67769;51.972;5.668;2023-11-21T11:34:15;12.5;80.9
78479;SHT31;67769;51.972;5.668;2023-11-21T11:36:52;12.5;81.3
78479;SHT31;67769;51.972;5.668;2023-11-21T11:39:29;12.4;81.0
78479;SHT31;67769;51.972;5.668;2023-11-21T11:42:02;12.4;81.6
78479;SHT31;67769;51.972;5.668;2023-11-21T11:44:52;12.4;81.8
78479;SHT31;67769;51.972;5.668;2023-11-21T11:47:23;12.4;81.3
78479;SHT31;67769;51.972;5.668;2023-11-21T11:50:03;12.4;81.7
78479;SHT31;67769;51.972;5.668;2023-11-21T11:52:35;12.4;82.1
78479;SHT31;67769;51.972;5.668;2023-11-21T11:55:06;12.4;82.3
78479;SHT31;67769;51.972;5.668;2023-11-21T11:57:37;12.4;82.2
78479;SHT31;67769;51.972;5.668;2023-11-21T12:00:17;12.4;82.1
78479;SHT31;67769;51.972;5.668;2023-11-21T12:02:49;12.4;82.4
78479;SHT31;67769;51.972;5.668;2023-11-21T12:05:20;12.4;82.7
78479;SHT31;67769;51.972;5.668;2023-11-21T12:07:51;12.4;82.5
78479;SHT31;67769;51.972;5.668;2023-11-21T12:10:24;12.4;81.8
78479;SHT31;67769;51.972;5.668;2023-11-21T12:12:54;12.4;81.8
78479;SHT31;67769;51.972;5.668;2023-11-21T12:15:25;12.4;81.9
78479;SHT31;67769;51.972;5.668;2023-11-21T12:17:56;12.4;82.1
78479;SHT31;67769;51.972;5.668;2023-11-21T12:20:26;12.5;82.2
78479;SHT31;67769;51.972;5.668;2023-11-21T12:22:57;12.5;82.3
78479;SHT31;67769;51.972;5.668;2023-11-21T12:25:28;12.5;82.1
78479;SHT31;67769;51.972;5.668;2023-11-21T12:27:59;12.5;81.0
78479;SHT31;67769;51.972;5.668;2023-11-21T12:30:30;12.6;80.7
78479;SHT31;67769;51.972;5.668;2023-11-21T12:33:00;12.6;80.8
78479;SHT31;67769;51.972;5.668;2023-11-21T12:35:34;12.6;81.2
78479;SHT31;67769;51.972;5.668;2023-11-21T12:38:04;12.6;81.5
78479;SHT31;67769;51.972;5.668;2023-11-21T12:40:35;12.6;81.4
78479;SHT31;67769;51.972;5.668;2023-11-21T12:43:04;12.6;81.3
78479;SHT31;67769;51.972;5.668;2023-11-21T12:45:36;12.6;81.5
78479;SHT31;67769;51.972;5.668;2023-11-21T12:48:05;12.6;81.0
78479;SHT31;67769;51.972;5.668;2023-11-21T12:50:38;12.6;81.0
78479;SHT31;67769;51.972;5.668;2023-11-21T12:53:09;12.6;80.0
78479;SHT31;67769;51.972;5.668;2023-11-21T12:55:39;12.5;80.2
78479;SHT31;67769;51.972;5.668;2023-11-21T12:58:09;12.5;80.2
78479;SHT31;67769;51.972;5.668;2023-11-21T13:00:42;12.4;80.1
78479;SHT31;67769;51.972;5.668;2023-11-21T13:03:13;12.4;80.3
78479;SHT31;67769;51.972;5.668;2023-11-21T13:05:45;12.4;80.9
78479;SHT31;67769;51.972;5.668;2023-11-21T13:08:17;12.3;81.2
78479;SHT31;67769;51.972;5.668;2023-11-21T13:10:50;12.3;81.5
78479;SHT31;67769;51.972;5.668;2023-11-21T13:13:21;12.3;81.9
78479;SHT31;67769;51.972;5.668;2023-11-21T13:15:51;12.3;81.5
78479;SHT31;67769;51.972;5.668;2023-11-21T13:18:22;12.3;81.2
78479;SHT31;67769;51.972;5.668;2023-11-21T13:20:54;12.3;81.0
78479;SHT31;67769;51.972;5.668;2023-11-21T13:23:24;12.3;81.4
78479;SHT31;67769;51.972;5.668;2023-11-21T13:25:54;12.3;81.1
78479;SHT31;67769;51.972;5.668;2023-11-21T13:28:22;12.3;80.7
78479;SHT31;67769;51.972;5.668;2023-11-21T13:30:59;12.3;81.1
78479;SHT31;67769;51.972;5.668;2023-11-21T13:33:36;12.3;81.4
78479;SHT31;67769;51.972;5.668;2023-11-21T13:36:07;12.3;81.7
78479;SHT31;67769;51.972;5.668;2023-11-21T13:38:38;12.3;80.7
78479;SHT31;67769;51.972;5.668;2023-11-21T13:41:10;12.3;81.0
78479;SHT31;67769;51.972;5.668;2023-11-21T13:43:40;12.3;81.4
78479;SHT31;67769;51.972;5.668;2023-11-21T13:46:10;12.3;81.9
78479;SHT31;67769;51.972;5.668;2023-11-21T13:48:41;12.4;81.6
78479;SHT31;67769;51.972;5.668;2023-11-21T13:51:17;12.4;79.7
78479;SHT31;67769;51.972;5.668;2023-11-21T13:53:48;12.4;80.1
78479;SHT31;67769;51.972;5.668;2023-11-21T13:56:19;12.4;80.2
78479;SHT31;67769;51.972;5.668;2023-11-21T13:58:50;12.4;80.2
78479;SHT31;67769;51.972;5.668;2023-11-21T14:01:22;12.4;81.0
78479;SHT31;67769;51.972;5.668;2023-11-21T14:04:05;12.4;80.0
78479;SHT31;67769;51.972;5.668;2023-11-21T14:06:42;12.5;79.9
78479;SHT31;67769;51.972;5.668;2023-11-21T14:09:14;12.5;79.8
78479;SHT31;67769;51.972;5.668;2023-11-21T14:11:48;12.5;79.9
78479;SHT31;67769;51.972;5.668;2023-11-21T14:14:18;12.5;79.9
78479;SHT31;67769;51.972;5.668;2023-11-21T14:16:46;12.5;80.1
78479;SHT31;67769;51.972;5.668;2023-11-21T14:19:18;12.5;79.6
78479;SHT31;67769;51.972;5.668;2023-11-21T14:21:47;12.5;78.9
78479;SHT31;67769;51.972;5.668;2023-11-21T14:24:16;12.4;78.7
78479;SHT31;67769;51.972;5.668;2023-11-21T14:26:46;12.4;79.2
78479;SHT31;67769;51.972;5.668;2023-11-21T14:29:18;12.4;79.2
78479;SHT31;67769;51.972;5.668;2023-11-21T14:31:49;12.3;79.3
78479;SHT31;67769;51.972;5.668;2023-11-21T14:34:23;12.2;79.6
78479;SHT31;67769;51.972;5.668;2023-11-21T14:36:56;12.2;79.9
78479;SHT31;67769;51.972;5.668;2023-11-21T14:39:26;12.1;79.3
78479;SHT31;67769;51.972;5.668;2023-11-21T14:41:55;12.1;79.6
78479;SHT31;67769;51.972;5.668;2023-11-21T14:44:26;12.1;79.5
78479;SHT31;67769;51.972;5.668;2023-11-21T14:46:59;12.0;79.1
78479;SHT31;67769;51.972;5.668;2023-11-21T14:49:32;11.9;79.3
78479;SHT31;67769;51.972;5.668;2023-11-21T14:52:08;11.9;79.7
78479;SHT31;67769;51.972;5.668;2023-11-21T14:54:41;11.8;79.8
78479;SHT31;67769;51.972;5.668;2023-11-21T14:57:13;11.8;79.8
78479;SHT31;67769;51.972;5.668;2023-11-21T14:59:46;11.7;80.3
78479;SHT31;67769;51.972;5.668;2023-11-21T15:02:18;11.7;80.3
78479;SHT31;67769;51.972;5.668;2023-11-21T15:04:49;11.6;79.7
78479;SHT31;67769;51.972;5.668;2023-11-21T15:07:21;11.5;80.2
78479;SHT31;67769;51.972;5.668;2023-11-21T15:09:52;11.5;80.4
78479;SHT31;67769;51.972;5.668;2023-11-21T15:12:21;11.4;80.3
78479;SHT31;67769;51.972;5.668;2023-11-21T15:14:53;11.4;80.2
78479;SHT31;67769;51.972;5.668;2023-11-21T15:17:23;11.4;80.3
78479;SHT31;67769;51.972;5.668;2023-11-21T15:19:53;11.3;80.3
78479;SHT31;67769;51.972;5.668;2023-11-21T15:22:23;11.3;79.8
78479;SHT31;67769;51.972;5.668;2023-11-21T15:24:53;11.3;79.7
78479;SHT31;67769;51.972;5.668;2023-11-21T15:27:24;11.2;79.4
78479;SHT31;67769;51.972;5.668;2023-11-21T15:29:53;11.2;78.8
78479;SHT31;67769;51.972;5.668;2023-11-21T15:32:22;11.1;78.3
78479;SHT31;67769;51.972;5.668;2023-11-21T15:34:51;11.1;77.9
78479;SHT31;67769;51.972;5.668;2023-11-21T15:37:20;11.0;78.3
78479;SHT31;67769;51.972;5.668;2023-11-21T15:39:48;10.9;77.9
78479;SHT31;67769;51.972;5.668;2023-11-21T15:42:17;10.9;77.9
78479;SHT31;67769;51.972;5.668;2023-11-21T15:44:46;10.8;78.0
78479;SHT31;67769;51.972;5.668;2023-11-21T15:47:16;10.8;78.2
78479;SHT31;67769;51.972;5.668;2023-11-21T15:49:45;10.7;78.6
78479;SHT31;67769;51.972;5.668;2023-11-21T15:52:15;10.7;78.0
78479;SHT31;67769;51.972;5.668;2023-11-21T15:54:45;10.7;77.7
78479;SHT31;67769;51.972;5.668;2023-11-21T15:57:14;10.6;77.9
78479;SHT31;67769;51.972;5.668;2023-11-21T15:59:43;10.6;77.3
78479;SHT31;67769;51.972;5.668;2023-11-21T16:02:12;10.6;77.0
78479;SHT31;67769;51.972;5.668;2023-11-21T16:04:42;10.6;76.5
78479;SHT31;67769;51.972;5.668;2023-11-21T16:07:11;10.5;76.1
78479;SHT31;67769;51.972;5.668;2023-11-21T16:09:40;10.5;77.0
78479;SHT31;67769;51.972;5.668;2023-11-21T16:12:10;10.4;76.6
78479;SHT31;67769;51.972;5.668;2023-11-21T16:14:39;10.4;76.4
78479;SHT31;67769;51.972;5.668;2023-11-21T16:17:11;10.3;75.1
78479;SHT31;67769;51.972;5.668;2023-11-21T16:19:40;10.3;75.2
78479;SHT31;67769;51.972;5.668;2023-11-21T16:22:11;10.2;75.3
78479;SHT31;67769;51.972;5.668;2023-11-21T16:24:40;10.1;75.7